Saint Walburg, Canada
Current Conditions -  °F | °C
As of 7:52 AM on Monday 24 Nov 2014 (Local Time) from CYLL Reporting Station
Light Snow Light Snow  
Wind Chill:   Ceiling: 3700
Heat Index: 21°   Visibility: 5mi
Dew Point: 19°   Wind: 12mph
Humidity: 93%   Direction: 320°NW
Pressure: 29.84"   Gusts: 18mph
Location:  53.63°N, 109.2°W
Report Text: CYLL 241352Z AUTO 32010G16KT 5SM -SN FEW011 OVC037 M06/M07 A2984 RMK SLP154
Loading
Personal Weather Stations






























Interactive Weather Map New forecast layout! Learn more

10-Day Weather Forecast

Advertisements
Track Severe Weather on mobile